Aviation Digital Data Service (ADDS)

Output produced by TAFs form (1022 UTC 01 October 2016)
found at http://aviationweather.gov/adds/tafs/
 
KHOB 010520Z 0106/0206 16010KT P6SM BKN120